Overview Statistics Trail Chart Weather Telemetry Raw packets
 

This is the latest recevied weather packets stored in our database for station/object SQ9RHX-11. If no packets are shown the sender has not sent any weather packets the latest 10 day(s).

<< 3 4 5 6 7 8 9 >>
Time Temp. Humidity Pressure Rain* Wind** Luminosity Snow
1788268081 23.33° C 46% 1020.4 hPa - - - -
1788266281 23.33° C 47% 1020.6 hPa - - - -
1788264481 23.33° C 48% 1020.7 hPa - - - -
1788262681 22.22° C 50% 1020.8 hPa - - - -
1788260881 21.67° C 52% 1020.7 hPa - - - -
1788259082 22.78° C 51% 1020.4 hPa - - - -
1788257283 21.67° C 54% 1020.4 hPa - - - -
1788255483 20.56° C 54% 1020.3 hPa - - - -
1788253684 21.67° C 54% 1020.1 hPa - - - -
1788251884 21.67° C 55% 1019.7 hPa - - - -
1788250084 20° C 58% 1019.9 hPa - - - -
1788248284 19.44° C 61% 1019.7 hPa - - - -
1788246484 19.44° C 61% 1019.6 hPa - - - -
1788244685 18.89° C 64% 1019.3 hPa - - - -
1788242884 17.22° C 66% 1019.1 hPa - - - -
1788241085 16.67° C 70% 1019 hPa - - - -
1788239285 15° C 74% 1018.7 hPa - - - -
1788237486 13.89° C 75% 1018.4 hPa - - - -
1788235686 13.89° C 75% 1018.1 hPa - - - -
1788233887 14.44° C 75% 1017.8 hPa - - - -
1788232088 15° C 75% 1017.6 hPa - - - -
1788230288 14.44° C 76% 1017.4 hPa - - - -
1788228488 15° C 78% 1017.2 hPa - - - -
1788226688 13.33° C 79% 1017 hPa - - - -
1788224889 14.44° C 76% 1017 hPa - - - -

* Rain since midnight (hover to see other rain measurements)
** Current wind speed in m/s (hover to see current wind gust speed)